LEVX/VGO METAR and TAF weather

Enter ICAO airport designator
Station Type Date Time Source
LEVX METAR 2020/09/19 21:00 UTC NOAA

LEVX 192100Z 19005KT 160V220 7000 BCFG FEW024 BKN043 OVC050 18/16 Q1015 NOSIG


Station Type Date Time Source
LEVX Decoded METAR 2020/09/19 21:00 UTC NOAA

Vigo / Peinador, Spain (LEVX) 42-13N 008-38W 255M
Sep 19, 2020 - 05:00 PM EDT / 2020.09.19 2100 UTC
Wind: from the S (190 degrees) at 6 MPH (5 KT) (direction variable):0
Visibility: 4 mile(s):0
Sky conditions: overcast
Weather: patches of fog
Temperature: 64 F (18 C)
Dew Point: 60 F (16 C)
Relative Humidity: 88%
Pressure (altimeter): 29.97 in. Hg (1015 hPa)
ob: LEVX 192100Z 19005KT 160V220 7000 BCFG FEW024 BKN043 OVC050 18/16 Q1015 NOSIG
cycle: 21

Station Type Date Time Source
LEVX TAF 2020/09/19 18:27 UTC NOAA

TAF TAF LEVX 191700Z 1918/2018 VRB04KT 9999 FEW015 BKN030 TX20/2013Z TN16/2004Z PROB30
TEMPO 1918/1921 3000 RA SHRA SCT030TCU
TEMPO 1918/2008 3000 -RA BR BKN010
TEMPO 2000/2008 1500 BR BKN005 PROB40
TEMPO 2000/2006 3000 RA SHRA SCT030TCU
TEMPO 2012/2018 27010KT

Example: see airport list